METAR AND TAF INFORMATION
METAR FOR SBQV
ADDS - METARS form results

(2123 UTC 22 May 2019)
Data provider http://aviationweather.gov/metar/data/
 
METAR text: SBQV 222100Z 14007KT 9999 FEW025 22/16 Q1018
Conditions at: SBQV (VITORIA DA CONQU, BR) observed 2100 UTC 22 May 2019
Temperature: 22.0°C (72°F)
Dewpoint: 16.0°C (61°F) [RH = 69%]
Pressure (altimeter): 30.06 inches Hg (1018.0 mb)
Winds: from the SE (140 degrees) at 8 MPH (7 knots; 3.6 m/s)
Visibility: 6 or more miles (10+ km)
Ceiling: at least 12,000 feet AGL
Clouds: few clouds at 2500 feet AGL
Weather: no significant weather observed at this time

 AIRPORT MAP

 RUNWAY INFORMATION
Runway 15 Runway length 5823 ft Runway width 98 ft
Runway elevation 0 ft Runway displaced threshold 0 ft Runway heading 0
Runway 33 Runway length 5823 ft Runway width 98 ft
Runway elevation 0 ft Runway displaced threshold 0 ft Runway heading 0

 AIRPORT FREQUENCIES
Type AFIS Name RDO Frequency 130.3 MHZ

 AIRPORT NEAR NAVIGATION AIDS
Type NDB Name Conquista Frequency 260 KHZ



Powered by Virtual Airlines Manager [v2.6.2]